sensor_id;sensor_type;location;lat;lon;timestamp;temperature;humidity
55488;DHT22;41352;53.158;6.788;2023-08-07T00:02:03;15.30;99.90
55488;DHT22;41352;53.158;6.788;2023-08-07T00:04:29;15.30;99.90
55488;DHT22;41352;53.158;6.788;2023-08-07T00:06:55;15.30;99.90
55488;DHT22;41352;53.158;6.788;2023-08-07T00:09:21;15.30;99.90
55488;DHT22;41352;53.158;6.788;2023-08-07T00:11:47;15.30;99.90
55488;DHT22;41352;53.158;6.788;2023-08-07T00:14:12;15.30;99.90
55488;DHT22;41352;53.158;6.788;2023-08-07T00:16:38;15.30;99.90
55488;DHT22;41352;53.158;6.788;2023-08-07T00:19:04;15.30;99.90
55488;DHT22;41352;53.158;6.788;2023-08-07T00:21:29;15.30;99.90
55488;DHT22;41352;53.158;6.788;2023-08-07T00:23:55;15.30;99.90
55488;DHT22;41352;53.158;6.788;2023-08-07T00:26:21;15.30;99.90
55488;DHT22;41352;53.158;6.788;2023-08-07T00:28:46;15.30;99.90
55488;DHT22;41352;53.158;6.788;2023-08-07T00:31:12;15.30;99.90
55488;DHT22;41352;53.158;6.788;2023-08-07T00:33:38;15.30;99.90
55488;DHT22;41352;53.158;6.788;2023-08-07T00:36:04;15.30;99.90
55488;DHT22;41352;53.158;6.788;2023-08-07T00:38:30;15.30;99.90
55488;DHT22;41352;53.158;6.788;2023-08-07T00:40:55;15.40;99.90
55488;DHT22;41352;53.158;6.788;2023-08-07T00:43:21;15.40;99.90
55488;DHT22;41352;53.158;6.788;2023-08-07T00:45:47;15.40;99.90
55488;DHT22;41352;53.158;6.788;2023-08-07T00:48:14;15.40;99.90
55488;DHT22;41352;53.158;6.788;2023-08-07T00:50:42;15.30;99.90
55488;DHT22;41352;53.158;6.788;2023-08-07T00:53:13;15.30;99.90
55488;DHT22;41352;53.158;6.788;2023-08-07T00:55:39;15.30;99.90
55488;DHT22;41352;53.158;6.788;2023-08-07T00:58:04;15.30;99.90
55488;DHT22;41352;53.158;6.788;2023-08-07T01:00:30;15.30;99.90
55488;DHT22;41352;53.158;6.788;2023-08-07T01:02:56;15.30;99.90
55488;DHT22;41352;53.158;6.788;2023-08-07T01:05:24;15.30;99.90
55488;DHT22;41352;53.158;6.788;2023-08-07T01:07:51;15.20;99.90
55488;DHT22;41352;53.158;6.788;2023-08-07T01:10:51;15.20;99.90
55488;DHT22;41352;53.158;6.788;2023-08-07T01:13:29;15.20;99.90
55488;DHT22;41352;53.158;6.788;2023-08-07T01:15:59;15.20;99.90
55488;DHT22;41352;53.158;6.788;2023-08-07T01:18:27;15.20;99.90
55488;DHT22;41352;53.158;6.788;2023-08-07T01:20:53;15.20;99.90
55488;DHT22;41352;53.158;6.788;2023-08-07T01:23:19;15.10;99.90
55488;DHT22;41352;53.158;6.788;2023-08-07T01:25:45;15.20;99.90
55488;DHT22;41352;53.158;6.788;2023-08-07T01:28:19;15.10;99.90
55488;DHT22;41352;53.158;6.788;2023-08-07T01:30:55;15.10;99.90
55488;DHT22;41352;53.158;6.788;2023-08-07T01:33:32;15.00;99.90
55488;DHT22;41352;53.158;6.788;2023-08-07T01:36:02;15.00;99.90
55488;DHT22;41352;53.158;6.788;2023-08-07T01:38:30;15.50;99.90
55488;DHT22;41352;53.158;6.788;2023-08-07T01:40:57;14.90;99.90
55488;DHT22;41352;53.158;6.788;2023-08-07T01:43:24;14.90;99.90
55488;DHT22;41352;53.158;6.788;2023-08-07T01:45:49;14.80;99.90
55488;DHT22;41352;53.158;6.788;2023-08-07T01:48:15;14.70;99.90
55488;DHT22;41352;53.158;6.788;2023-08-07T01:50:41;14.70;99.90
55488;DHT22;41352;53.158;6.788;2023-08-07T01:53:06;14.70;99.90
55488;DHT22;41352;53.158;6.788;2023-08-07T01:55:32;14.60;99.90
55488;DHT22;41352;53.158;6.788;2023-08-07T01:57:58;14.60;99.90
55488;DHT22;41352;53.158;6.788;2023-08-07T02:00:24;14.50;99.90
55488;DHT22;41352;53.158;6.788;2023-08-07T02:02:49;14.50;99.90
55488;DHT22;41352;53.158;6.788;2023-08-07T02:05:15;14.40;99.90
55488;DHT22;41352;53.158;6.788;2023-08-07T02:09:52;14.40;99.90
55488;DHT22;41352;53.158;6.788;2023-08-07T02:12:17;14.40;99.90
55488;DHT22;41352;53.158;6.788;2023-08-07T02:14:43;14.30;99.90
55488;DHT22;41352;53.158;6.788;2023-08-07T02:17:09;14.30;99.90
55488;DHT22;41352;53.158;6.788;2023-08-07T02:19:34;14.30;99.90
55488;DHT22;41352;53.158;6.788;2023-08-07T02:22:01;14.30;99.90
55488;DHT22;41352;53.158;6.788;2023-08-07T02:24:27;14.30;99.90
55488;DHT22;41352;53.158;6.788;2023-08-07T02:26:53;14.30;99.90
55488;DHT22;41352;53.158;6.788;2023-08-07T02:29:18;14.20;99.90
55488;DHT22;41352;53.158;6.788;2023-08-07T02:31:44;14.20;99.90
55488;DHT22;41352;53.158;6.788;2023-08-07T02:34:10;14.20;99.90
55488;DHT22;41352;53.158;6.788;2023-08-07T02:36:35;14.30;99.90
55488;DHT22;41352;53.158;6.788;2023-08-07T02:39:01;14.20;99.90
55488;DHT22;41352;53.158;6.788;2023-08-07T02:41:27;14.20;99.90
55488;DHT22;41352;53.158;6.788;2023-08-07T02:43:53;14.20;99.90
55488;DHT22;41352;53.158;6.788;2023-08-07T02:48:48;14.20;99.90
55488;DHT22;41352;53.158;6.788;2023-08-07T02:51:14;14.20;99.90
55488;DHT22;41352;53.158;6.788;2023-08-07T02:53:39;14.20;99.90
55488;DHT22;41352;53.158;6.788;2023-08-07T02:56:05;14.30;99.90
55488;DHT22;41352;53.158;6.788;2023-08-07T02:58:31;14.30;99.90
55488;DHT22;41352;53.158;6.788;2023-08-07T03:00:57;14.30;99.90
55488;DHT22;41352;53.158;6.788;2023-08-07T03:03:28;14.30;99.90
55488;DHT22;41352;53.158;6.788;2023-08-07T03:05:53;14.30;99.90
55488;DHT22;41352;53.158;6.788;2023-08-07T03:10:53;14.30;99.90
55488;DHT22;41352;53.158;6.788;2023-08-07T03:13:25;14.30;99.90
55488;DHT22;41352;53.158;6.788;2023-08-07T03:15:59;14.30;99.90
55488;DHT22;41352;53.158;6.788;2023-08-07T03:18:25;14.30;99.90
55488;DHT22;41352;53.158;6.788;2023-08-07T03:20:50;14.30;99.90
55488;DHT22;41352;53.158;6.788;2023-08-07T03:23:16;14.30;99.90
55488;DHT22;41352;53.158;6.788;2023-08-07T03:25:42;14.30;99.90
55488;DHT22;41352;53.158;6.788;2023-08-07T03:28:07;14.30;99.90
55488;DHT22;41352;53.158;6.788;2023-08-07T03:30:33;14.40;99.90
55488;DHT22;41352;53.158;6.788;2023-08-07T03:32:59;14.40;99.90
55488;DHT22;41352;53.158;6.788;2023-08-07T03:35:24;14.40;99.90
55488;DHT22;41352;53.158;6.788;2023-08-07T03:37:50;14.40;99.90
55488;DHT22;41352;53.158;6.788;2023-08-07T03:40:16;14.40;99.90
55488;DHT22;41352;53.158;6.788;2023-08-07T03:42:41;14.20;99.90
55488;DHT22;41352;53.158;6.788;2023-08-07T03:45:07;13.50;99.90
55488;DHT22;41352;53.158;6.788;2023-08-07T03:47:33;14.30;99.90
55488;DHT22;41352;53.158;6.788;2023-08-07T03:49:59;14.40;99.90
55488;DHT22;41352;53.158;6.788;2023-08-07T03:52:25;14.40;99.90
55488;DHT22;41352;53.158;6.788;2023-08-07T03:54:50;14.40;99.90
55488;DHT22;41352;53.158;6.788;2023-08-07T03:57:16;14.40;99.90
55488;DHT22;41352;53.158;6.788;2023-08-07T03:59:41;14.40;99.90
55488;DHT22;41352;53.158;6.788;2023-08-07T04:02:07;14.40;99.90
55488;DHT22;41352;53.158;6.788;2023-08-07T04:04:33;14.40;99.90
55488;DHT22;41352;53.158;6.788;2023-08-07T04:06:58;14.40;99.90
55488;DHT22;41352;53.158;6.788;2023-08-07T04:09:24;14.40;99.90
55488;DHT22;41352;53.158;6.788;2023-08-07T04:11:50;14.50;99.90
55488;DHT22;41352;53.158;6.788;2023-08-07T04:14:15;14.50;99.90
55488;DHT22;41352;53.158;6.788;2023-08-07T04:16:41;14.60;99.90
55488;DHT22;41352;53.158;6.788;2023-08-07T04:19:07;14.60;99.90
55488;DHT22;41352;53.158;6.788;2023-08-07T04:21:33;14.50;99.90
55488;DHT22;41352;53.158;6.788;2023-08-07T04:23:59;14.50;99.90
55488;DHT22;41352;53.158;6.788;2023-08-07T04:26:26;14.50;99.90
55488;DHT22;41352;53.158;6.788;2023-08-07T04:28:52;14.50;99.90
55488;DHT22;41352;53.158;6.788;2023-08-07T04:31:17;14.50;99.90
55488;DHT22;41352;53.158;6.788;2023-08-07T04:33:43;14.50;99.90
55488;DHT22;41352;53.158;6.788;2023-08-07T04:36:09;14.50;99.90
55488;DHT22;41352;53.158;6.788;2023-08-07T04:38:35;14.50;99.90
55488;DHT22;41352;53.158;6.788;2023-08-07T04:41:00;14.50;99.90
55488;DHT22;41352;53.158;6.788;2023-08-07T04:43:26;14.60;99.90
55488;DHT22;41352;53.158;6.788;2023-08-07T04:45:53;14.50;99.90
55488;DHT22;41352;53.158;6.788;2023-08-07T04:50:50;14.60;99.90
55488;DHT22;41352;53.158;6.788;2023-08-07T04:53:16;14.60;99.90
55488;DHT22;41352;53.158;6.788;2023-08-07T04:55:42;14.60;99.90
55488;DHT22;41352;53.158;6.788;2023-08-07T04:58:08;14.60;99.90
55488;DHT22;41352;53.158;6.788;2023-08-07T05:00:34;14.60;99.90
55488;DHT22;41352;53.158;6.788;2023-08-07T05:03:00;14.70;99.90
55488;DHT22;41352;53.158;6.788;2023-08-07T05:05:27;14.80;99.90
55488;DHT22;41352;53.158;6.788;2023-08-07T05:07:54;14.80;99.90
55488;DHT22;41352;53.158;6.788;2023-08-07T05:10:24;14.70;99.90
55488;DHT22;41352;53.158;6.788;2023-08-07T05:12:50;14.70;99.90
55488;DHT22;41352;53.158;6.788;2023-08-07T05:15:25;14.70;99.90
55488;DHT22;41352;53.158;6.788;2023-08-07T05:17:51;14.70;99.90
55488;DHT22;41352;53.158;6.788;2023-08-07T05:20:18;14.80;99.90
55488;DHT22;41352;53.158;6.788;2023-08-07T05:22:44;14.80;99.90
55488;DHT22;41352;53.158;6.788;2023-08-07T05:25:09;14.90;99.90
55488;DHT22;41352;53.158;6.788;2023-08-07T05:27:37;15.00;99.90
55488;DHT22;41352;53.158;6.788;2023-08-07T05:30:03;15.10;99.90
55488;DHT22;41352;53.158;6.788;2023-08-07T05:32:29;15.20;99.90
55488;DHT22;41352;53.158;6.788;2023-08-07T05:34:55;15.30;99.90
55488;DHT22;41352;53.158;6.788;2023-08-07T05:37:24;15.30;99.90
55488;DHT22;41352;53.158;6.788;2023-08-07T05:39:50;15.40;99.90
55488;DHT22;41352;53.158;6.788;2023-08-07T05:42:15;15.30;99.90
55488;DHT22;41352;53.158;6.788;2023-08-07T05:44:41;15.30;99.90
55488;DHT22;41352;53.158;6.788;2023-08-07T05:47:07;15.30;99.90
55488;DHT22;41352;53.158;6.788;2023-08-07T05:49:33;15.30;99.90
55488;DHT22;41352;53.158;6.788;2023-08-07T05:51:58;15.30;99.90
55488;DHT22;41352;53.158;6.788;2023-08-07T05:54:24;15.40;99.90
55488;DHT22;41352;53.158;6.788;2023-08-07T05:56:50;15.50;99.90
55488;DHT22;41352;53.158;6.788;2023-08-07T05:59:15;15.70;99.90
55488;DHT22;41352;53.158;6.788;2023-08-07T06:01:41;15.80;99.90
55488;DHT22;41352;53.158;6.788;2023-08-07T06:04:07;15.90;99.90
55488;DHT22;41352;53.158;6.788;2023-08-07T06:06:33;16.10;99.90
55488;DHT22;41352;53.158;6.788;2023-08-07T06:09:04;16.40;99.90
55488;DHT22;41352;53.158;6.788;2023-08-07T06:11:29;16.20;99.90
55488;DHT22;41352;53.158;6.788;2023-08-07T06:13:55;16.00;99.90
55488;DHT22;41352;53.158;6.788;2023-08-07T06:16:24;15.80;99.90
55488;DHT22;41352;53.158;6.788;2023-08-07T06:18:50;15.50;99.90
55488;DHT22;41352;53.158;6.788;2023-08-07T06:21:16;15.30;99.90
55488;DHT22;41352;53.158;6.788;2023-08-07T06:23:41;15.30;99.90
55488;DHT22;41352;53.158;6.788;2023-08-07T06:26:07;15.30;99.90
55488;DHT22;41352;53.158;6.788;2023-08-07T06:28:34;15.40;99.90
55488;DHT22;41352;53.158;6.788;2023-08-07T06:31:09;15.50;99.90
55488;DHT22;41352;53.158;6.788;2023-08-07T06:33:35;15.60;99.90
55488;DHT22;41352;53.158;6.788;2023-08-07T06:36:02;15.60;99.90
55488;DHT22;41352;53.158;6.788;2023-08-07T06:38:29;15.70;99.90
55488;DHT22;41352;53.158;6.788;2023-08-07T06:40:55;15.80;99.90
55488;DHT22;41352;53.158;6.788;2023-08-07T06:43:23;15.80;99.90
55488;DHT22;41352;53.158;6.788;2023-08-07T06:45:53;15.90;99.90
55488;DHT22;41352;53.158;6.788;2023-08-07T06:48:23;15.90;99.90
55488;DHT22;41352;53.158;6.788;2023-08-07T06:50:49;15.90;99.90
55488;DHT22;41352;53.158;6.788;2023-08-07T06:53:16;16.20;99.90
55488;DHT22;41352;53.158;6.788;2023-08-07T06:55:42;16.60;99.90
55488;DHT22;41352;53.158;6.788;2023-08-07T06:58:08;16.60;99.90
55488;DHT22;41352;53.158;6.788;2023-08-07T07:00:35;16.20;99.90
55488;DHT22;41352;53.158;6.788;2023-08-07T07:03:01;15.80;99.90
55488;DHT22;41352;53.158;6.788;2023-08-07T07:05:27;15.60;99.90
55488;DHT22;41352;53.158;6.788;2023-08-07T07:07:53;15.60;99.90
55488;DHT22;41352;53.158;6.788;2023-08-07T07:12:48;15.70;99.90
55488;DHT22;41352;53.158;6.788;2023-08-07T07:15:14;15.70;99.90
55488;DHT22;41352;53.158;6.788;2023-08-07T07:17:40;15.10;99.90
55488;DHT22;41352;53.158;6.788;2023-08-07T07:20:06;15.80;99.90
55488;DHT22;41352;53.158;6.788;2023-08-07T07:22:35;15.80;99.90
55488;DHT22;41352;53.158;6.788;2023-08-07T07:25:01;16.00;99.90
55488;DHT22;41352;53.158;6.788;2023-08-07T07:27:26;16.00;99.90
55488;DHT22;41352;53.158;6.788;2023-08-07T07:29:52;15.90;99.90
55488;DHT22;41352;53.158;6.788;2023-08-07T07:32:19;15.90;99.90
55488;DHT22;41352;53.158;6.788;2023-08-07T07:34:44;15.90;99.90
55488;DHT22;41352;53.158;6.788;2023-08-07T07:37:10;16.10;99.90
55488;DHT22;41352;53.158;6.788;2023-08-07T07:39:36;16.10;99.90
55488;DHT22;41352;53.158;6.788;2023-08-07T07:42:01;16.20;99.90
55488;DHT22;41352;53.158;6.788;2023-08-07T07:44:29;16.30;99.90
55488;DHT22;41352;53.158;6.788;2023-08-07T07:46:54;16.60;99.90
55488;DHT22;41352;53.158;6.788;2023-08-07T07:51:49;17.50;99.90
55488;DHT22;41352;53.158;6.788;2023-08-07T07:54:15;17.70;99.90
55488;DHT22;41352;53.158;6.788;2023-08-07T07:56:44;17.70;99.90
55488;DHT22;41352;53.158;6.788;2023-08-07T07:59:10;17.90;99.90
55488;DHT22;41352;53.158;6.788;2023-08-07T08:01:35;18.00;99.90
55488;DHT22;41352;53.158;6.788;2023-08-07T08:04:01;17.80;99.90
55488;DHT22;41352;53.158;6.788;2023-08-07T08:06:27;18.40;99.90
55488;DHT22;41352;53.158;6.788;2023-08-07T08:08:53;17.90;99.90
55488;DHT22;41352;53.158;6.788;2023-08-07T08:11:18;17.80;99.90
55488;DHT22;41352;53.158;6.788;2023-08-07T08:13:44;17.70;99.90
55488;DHT22;41352;53.158;6.788;2023-08-07T08:16:10;17.40;99.90
55488;DHT22;41352;53.158;6.788;2023-08-07T08:18:35;17.10;99.90
55488;DHT22;41352;53.158;6.788;2023-08-07T08:21:01;16.60;99.90
55488;DHT22;41352;53.158;6.788;2023-08-07T08:23:27;16.50;99.90
55488;DHT22;41352;53.158;6.788;2023-08-07T08:25:52;16.50;99.90
55488;DHT22;41352;53.158;6.788;2023-08-07T08:28:18;16.50;99.90
55488;DHT22;41352;53.158;6.788;2023-08-07T08:30:44;16.40;99.90
55488;DHT22;41352;53.158;6.788;2023-08-07T08:33:10;16.60;99.90
55488;DHT22;41352;53.158;6.788;2023-08-07T08:35:38;16.60;99.90
55488;DHT22;41352;53.158;6.788;2023-08-07T08:38:04;16.60;99.90
55488;DHT22;41352;53.158;6.788;2023-08-07T08:40:34;16.50;99.90
55488;DHT22;41352;53.158;6.788;2023-08-07T08:43:00;16.40;99.90
55488;DHT22;41352;53.158;6.788;2023-08-07T08:45:27;17.40;99.90
55488;DHT22;41352;53.158;6.788;2023-08-07T08:47:55;17.70;99.90
55488;DHT22;41352;53.158;6.788;2023-08-07T08:50:26;17.90;99.90
55488;DHT22;41352;53.158;6.788;2023-08-07T08:52:53;18.10;99.90
55488;DHT22;41352;53.158;6.788;2023-08-07T08:55:25;18.00;99.90
55488;DHT22;41352;53.158;6.788;2023-08-07T08:57:52;18.20;99.90
55488;DHT22;41352;53.158;6.788;2023-08-07T09:00:23;18.80;99.90
55488;DHT22;41352;53.158;6.788;2023-08-07T09:02:52;18.90;99.90
55488;DHT22;41352;53.158;6.788;2023-08-07T09:05:19;19.60;99.90
55488;DHT22;41352;53.158;6.788;2023-08-07T09:07:49;19.60;99.90
55488;DHT22;41352;53.158;6.788;2023-08-07T09:10:15;18.80;99.90
55488;DHT22;41352;53.158;6.788;2023-08-07T09:12:51;18.50;99.90
55488;DHT22;41352;53.158;6.788;2023-08-07T09:15:18;18.70;99.90
55488;DHT22;41352;53.158;6.788;2023-08-07T09:17:45;18.90;99.90
55488;DHT22;41352;53.158;6.788;2023-08-07T09:20:12;19.20;99.90
55488;DHT22;41352;53.158;6.788;2023-08-07T09:22:42;19.30;99.90
55488;DHT22;41352;53.158;6.788;2023-08-07T09:25:08;19.40;99.90
55488;DHT22;41352;53.158;6.788;2023-08-07T09:27:38;19.40;99.90
55488;DHT22;41352;53.158;6.788;2023-08-07T09:30:06;19.30;99.90
55488;DHT22;41352;53.158;6.788;2023-08-07T09:32:36;19.20;99.90
55488;DHT22;41352;53.158;6.788;2023-08-07T09:35:03;19.90;99.90
55488;DHT22;41352;53.158;6.788;2023-08-07T09:37:30;20.20;99.90
55488;DHT22;41352;53.158;6.788;2023-08-07T09:39:56;19.70;99.90
55488;DHT22;41352;53.158;6.788;2023-08-07T09:42:23;18.60;99.90
55488;DHT22;41352;53.158;6.788;2023-08-07T09:44:49;18.70;99.90
55488;DHT22;41352;53.158;6.788;2023-08-07T09:47:19;19.10;99.90
55488;DHT22;41352;53.158;6.788;2023-08-07T09:49:45;19.20;99.90
55488;DHT22;41352;53.158;6.788;2023-08-07T09:52:14;18.80;99.90
55488;DHT22;41352;53.158;6.788;2023-08-07T09:54:40;18.90;99.90
55488;DHT22;41352;53.158;6.788;2023-08-07T09:57:06;19.00;99.90
55488;DHT22;41352;53.158;6.788;2023-08-07T09:59:35;18.70;99.90
55488;DHT22;41352;53.158;6.788;2023-08-07T10:02:02;18.40;99.90
55488;DHT22;41352;53.158;6.788;2023-08-07T10:04:28;18.20;99.90
55488;DHT22;41352;53.158;6.788;2023-08-07T10:06:54;18.70;99.90
55488;DHT22;41352;53.158;6.788;2023-08-07T10:09:24;19.60;99.90
55488;DHT22;41352;53.158;6.788;2023-08-07T10:11:52;18.60;99.90
55488;DHT22;41352;53.158;6.788;2023-08-07T10:14:18;18.50;99.90
55488;DHT22;41352;53.158;6.788;2023-08-07T10:16:45;18.40;99.90
55488;DHT22;41352;53.158;6.788;2023-08-07T10:19:11;18.20;99.90
55488;DHT22;41352;53.158;6.788;2023-08-07T10:21:39;18.10;99.90
55488;DHT22;41352;53.158;6.788;2023-08-07T10:24:05;17.90;99.90
55488;DHT22;41352;53.158;6.788;2023-08-07T10:26:34;18.20;99.90
55488;DHT22;41352;53.158;6.788;2023-08-07T10:29:02;18.20;99.90
55488;DHT22;41352;53.158;6.788;2023-08-07T10:31:30;18.30;99.90
55488;DHT22;41352;53.158;6.788;2023-08-07T10:33:57;18.90;99.90
55488;DHT22;41352;53.158;6.788;2023-08-07T10:36:23;19.50;99.90
55488;DHT22;41352;53.158;6.788;2023-08-07T10:39:15;19.20;99.90
55488;DHT22;41352;53.158;6.788;2023-08-07T10:41:46;18.50;99.90
55488;DHT22;41352;53.158;6.788;2023-08-07T10:46:56;19.00;99.90
55488;DHT22;41352;53.158;6.788;2023-08-07T10:49:33;19.00;99.90
55488;DHT22;41352;53.158;6.788;2023-08-07T10:52:13;18.80;99.90
55488;DHT22;41352;53.158;6.788;2023-08-07T10:54:49;18.80;99.90
55488;DHT22;41352;53.158;6.788;2023-08-07T10:57:17;19.00;99.90
55488;DHT22;41352;53.158;6.788;2023-08-07T11:02:24;18.30;99.90
55488;DHT22;41352;53.158;6.788;2023-08-07T11:04:52;17.80;99.90
55488;DHT22;41352;53.158;6.788;2023-08-07T11:09:48;18.80;99.90
55488;DHT22;41352;53.158;6.788;2023-08-07T11:12:17;18.50;99.90
55488;DHT22;41352;53.158;6.788;2023-08-07T11:14:43;18.50;99.90
55488;DHT22;41352;53.158;6.788;2023-08-07T11:17:09;19.00;99.90
55488;DHT22;41352;53.158;6.788;2023-08-07T11:19:35;19.50;99.90
55488;DHT22;41352;53.158;6.788;2023-08-07T11:22:01;19.80;99.90
55488;DHT22;41352;53.158;6.788;2023-08-07T11:24:27;19.90;99.90
55488;DHT22;41352;53.158;6.788;2023-08-07T11:26:53;19.50;99.90
55488;DHT22;41352;53.158;6.788;2023-08-07T11:29:23;19.10;99.90
55488;DHT22;41352;53.158;6.788;2023-08-07T11:31:53;18.90;99.90
55488;DHT22;41352;53.158;6.788;2023-08-07T11:36:48;18.20;99.90
55488;DHT22;41352;53.158;6.788;2023-08-07T11:39:14;18.00;99.90
55488;DHT22;41352;53.158;6.788;2023-08-07T11:41:42;17.80;99.90
55488;DHT22;41352;53.158;6.788;2023-08-07T11:44:08;17.40;99.90
55488;DHT22;41352;53.158;6.788;2023-08-07T11:46:34;16.90;99.90
55488;DHT22;41352;53.158;6.788;2023-08-07T11:48:59;17.20;99.90
55488;DHT22;41352;53.158;6.788;2023-08-07T11:51:27;17.10;99.90
55488;DHT22;41352;53.158;6.788;2023-08-07T11:53:54;17.20;99.90
55488;DHT22;41352;53.158;6.788;2023-08-07T11:56:23;17.40;99.90
55488;DHT22;41352;53.158;6.788;2023-08-07T11:58:51;17.60;99.90
55488;DHT22;41352;53.158;6.788;2023-08-07T12:04:08;17.90;99.90
55488;DHT22;41352;53.158;6.788;2023-08-07T12:06:35;17.80;99.90
55488;DHT22;41352;53.158;6.788;2023-08-07T12:09:02;18.10;99.90
55488;DHT22;41352;53.158;6.788;2023-08-07T12:11:29;17.80;99.90
55488;DHT22;41352;53.158;6.788;2023-08-07T12:13:55;18.00;99.90
55488;DHT22;41352;53.158;6.788;2023-08-07T12:16:24;18.30;99.90
55488;DHT22;41352;53.158;6.788;2023-08-07T12:18:51;18.40;99.90
55488;DHT22;41352;53.158;6.788;2023-08-07T12:21:19;18.60;99.90
55488;DHT22;41352;53.158;6.788;2023-08-07T12:23:55;18.30;99.90
55488;DHT22;41352;53.158;6.788;2023-08-07T12:28:49;17.40;99.90
55488;DHT22;41352;53.158;6.788;2023-08-07T12:31:16;17.50;99.90
55488;DHT22;41352;53.158;6.788;2023-08-07T12:33:43;17.30;99.90
55488;DHT22;41352;53.158;6.788;2023-08-07T12:36:08;17.50;99.90
55488;DHT22;41352;53.158;6.788;2023-08-07T12:38:35;17.80;99.90
55488;DHT22;41352;53.158;6.788;2023-08-07T12:41:01;18.30;99.90
55488;DHT22;41352;53.158;6.788;2023-08-07T12:43:28;18.70;99.90
55488;DHT22;41352;53.158;6.788;2023-08-07T12:45:54;18.70;99.90
55488;DHT22;41352;53.158;6.788;2023-08-07T12:50:51;20.10;99.90
55488;DHT22;41352;53.158;6.788;2023-08-07T12:53:17;23.50;99.90
55488;DHT22;41352;53.158;6.788;2023-08-07T12:55:43;24.20;99.90
55488;DHT22;41352;53.158;6.788;2023-08-07T12:58:08;25.70;99.90
55488;DHT22;41352;53.158;6.788;2023-08-07T13:00:34;25.00;99.90
55488;DHT22;41352;53.158;6.788;2023-08-07T13:03:00;25.90;99.90
55488;DHT22;41352;53.158;6.788;2023-08-07T13:05:28;25.10;99.90
55488;DHT22;41352;53.158;6.788;2023-08-07T13:07:55;23.80;99.90
55488;DHT22;41352;53.158;6.788;2023-08-07T13:10:23;23.30;99.90
55488;DHT22;41352;53.158;6.788;2023-08-07T13:12:50;23.90;99.90
55488;DHT22;41352;53.158;6.788;2023-08-07T13:15:17;22.80;99.90
55488;DHT22;41352;53.158;6.788;2023-08-07T13:17:43;21.50;99.90
55488;DHT22;41352;53.158;6.788;2023-08-07T13:20:11;22.20;99.90
55488;DHT22;41352;53.158;6.788;2023-08-07T13:22:39;21.70;99.90
55488;DHT22;41352;53.158;6.788;2023-08-07T13:25:06;22.20;99.90
55488;DHT22;41352;53.158;6.788;2023-08-07T13:27:34;23.90;99.90
55488;DHT22;41352;53.158;6.788;2023-08-07T13:30:00;21.90;99.90
55488;DHT22;41352;53.158;6.788;2023-08-07T13:32:26;20.50;99.90
55488;DHT22;41352;53.158;6.788;2023-08-07T13:34:53;20.20;99.90
55488;DHT22;41352;53.158;6.788;2023-08-07T13:37:19;19.50;99.90
55488;DHT22;41352;53.158;6.788;2023-08-07T13:39:48;19.00;99.90
55488;DHT22;41352;53.158;6.788;2023-08-07T13:42:17;18.70;99.90
55488;DHT22;41352;53.158;6.788;2023-08-07T13:44:43;18.70;99.90
55488;DHT22;41352;53.158;6.788;2023-08-07T13:47:09;18.80;99.90
55488;DHT22;41352;53.158;6.788;2023-08-07T13:49:39;18.70;99.90
55488;DHT22;41352;53.158;6.788;2023-08-07T13:52:05;18.70;99.90
55488;DHT22;41352;53.158;6.788;2023-08-07T13:54:31;18.20;99.90
55488;DHT22;41352;53.158;6.788;2023-08-07T13:56:56;18.30;99.90
55488;DHT22;41352;53.158;6.788;2023-08-07T13:59:23;19.10;99.90
55488;DHT22;41352;53.158;6.788;2023-08-07T14:01:49;20.30;99.90
55488;DHT22;41352;53.158;6.788;2023-08-07T14:04:15;19.70;99.90
55488;DHT22;41352;53.158;6.788;2023-08-07T14:06:41;19.50;99.90
55488;DHT22;41352;53.158;6.788;2023-08-07T14:09:10;19.50;99.90
55488;DHT22;41352;53.158;6.788;2023-08-07T14:11:37;19.20;99.90
55488;DHT22;41352;53.158;6.788;2023-08-07T14:14:03;19.20;99.90
55488;DHT22;41352;53.158;6.788;2023-08-07T14:16:28;19.20;99.90
55488;DHT22;41352;53.158;6.788;2023-08-07T14:18:55;19.70;99.90
55488;DHT22;41352;53.158;6.788;2023-08-07T14:21:24;19.70;99.90
55488;DHT22;41352;53.158;6.788;2023-08-07T14:23:50;20.30;99.90
55488;DHT22;41352;53.158;6.788;2023-08-07T14:26:16;19.40;99.90
55488;DHT22;41352;53.158;6.788;2023-08-07T14:28:43;19.20;99.90
55488;DHT22;41352;53.158;6.788;2023-08-07T14:31:09;18.90;99.90
55488;DHT22;41352;53.158;6.788;2023-08-07T14:33:35;18.60;99.90
55488;DHT22;41352;53.158;6.788;2023-08-07T14:36:01;18.40;99.90
55488;DHT22;41352;53.158;6.788;2023-08-07T14:38:28;18.60;99.90
55488;DHT22;41352;53.158;6.788;2023-08-07T14:40:54;19.00;99.90
55488;DHT22;41352;53.158;6.788;2023-08-07T14:43:23;18.90;99.90
55488;DHT22;41352;53.158;6.788;2023-08-07T14:45:49;18.50;99.90
55488;DHT22;41352;53.158;6.788;2023-08-07T14:48:15;18.80;99.90
55488;DHT22;41352;53.158;6.788;2023-08-07T14:50:41;18.60;99.90
55488;DHT22;41352;53.158;6.788;2023-08-07T14:53:07;18.70;99.90
55488;DHT22;41352;53.158;6.788;2023-08-07T14:55:33;18.90;99.90
55488;DHT22;41352;53.158;6.788;2023-08-07T14:57:58;19.30;99.90
55488;DHT22;41352;53.158;6.788;2023-08-07T15:00:24;19.40;99.90
55488;DHT22;41352;53.158;6.788;2023-08-07T15:02:50;18.80;99.90
55488;DHT22;41352;53.158;6.788;2023-08-07T15:05:16;18.50;99.90
55488;DHT22;41352;53.158;6.788;2023-08-07T15:07:41;22.00;99.90
55488;DHT22;41352;53.158;6.788;2023-08-07T15:10:08;20.30;99.90
55488;DHT22;41352;53.158;6.788;2023-08-07T15:12:34;20.40;99.90
55488;DHT22;41352;53.158;6.788;2023-08-07T15:15:00;20.80;99.90
55488;DHT22;41352;53.158;6.788;2023-08-07T15:17:26;24.30;99.90
55488;DHT22;41352;53.158;6.788;2023-08-07T15:19:52;25.30;99.90
55488;DHT22;41352;53.158;6.788;2023-08-07T15:22:18;22.60;99.90
55488;DHT22;41352;53.158;6.788;2023-08-07T15:24:43;20.00;99.90
55488;DHT22;41352;53.158;6.788;2023-08-07T15:27:09;20.40;99.90
55488;DHT22;41352;53.158;6.788;2023-08-07T15:29:35;22.70;99.90
55488;DHT22;41352;53.158;6.788;2023-08-07T15:32:00;24.30;99.90
55488;DHT22;41352;53.158;6.788;2023-08-07T15:34:26;20.70;99.90
55488;DHT22;41352;53.158;6.788;2023-08-07T15:36:52;19.50;99.90
55488;DHT22;41352;53.158;6.788;2023-08-07T15:39:18;19.40;99.90
55488;DHT22;41352;53.158;6.788;2023-08-07T15:41:43;19.10;99.90
55488;DHT22;41352;53.158;6.788;2023-08-07T15:44:09;19.30;99.90
55488;DHT22;41352;53.158;6.788;2023-08-07T15:46:35;19.60;99.90
55488;DHT22;41352;53.158;6.788;2023-08-07T15:49:00;19.30;99.90
55488;DHT22;41352;53.158;6.788;2023-08-07T15:51:26;19.80;99.90
55488;DHT22;41352;53.158;6.788;2023-08-07T15:53:52;20.10;99.90
55488;DHT22;41352;53.158;6.788;2023-08-07T15:56:18;19.90;99.90
55488;DHT22;41352;53.158;6.788;2023-08-07T15:58:43;19.90;99.90
55488;DHT22;41352;53.158;6.788;2023-08-07T16:01:09;19.20;99.90